createdAt,value
2018-09-24T00:02:26.583Z,25.57
2018-09-24T00:04:59.979Z,25.63
2018-09-24T00:07:33.404Z,25.53
2018-09-24T00:10:06.863Z,25.97
2018-09-24T00:12:40.323Z,25.53
2018-09-24T00:15:13.720Z,25.53
2018-09-24T00:17:47.147Z,25.43
2018-09-24T00:20:20.543Z,25.50
2018-09-24T00:22:53.958Z,25.33
2018-09-24T00:25:27.367Z,25.37
2018-09-24T00:28:00.795Z,25.33
2018-09-24T00:30:34.206Z,25.67
2018-09-24T00:33:07.603Z,25.70
2018-09-24T00:35:40.989Z,25.57
2018-09-24T00:38:14.384Z,25.43
2018-09-24T00:40:47.775Z,25.53
2018-09-24T00:43:21.191Z,25.30
2018-09-24T00:45:54.583Z,25.40
2018-09-24T00:48:28.012Z,25.17
2018-09-24T00:51:01.388Z,25.43
2018-09-24T00:53:34.788Z,25.50
2018-09-24T00:56:08.159Z,25.40
2018-09-24T00:58:41.551Z,25.53
2018-09-24T01:01:14.944Z,25.47
2018-09-24T01:03:48.336Z,25.53
2018-09-24T01:06:21.720Z,25.60
2018-09-24T01:08:55.152Z,25.67
2018-09-24T01:11:28.523Z,25.60
2018-09-24T01:14:01.928Z,25.37
2018-09-24T01:16:35.407Z,25.30
2018-09-24T01:19:08.929Z,25.67
2018-09-24T01:21:42.299Z,25.33
2018-09-24T01:24:15.708Z,25.60
2018-09-24T01:26:49.090Z,25.50
2018-09-24T01:29:22.524Z,25.27
2018-09-24T01:31:55.958Z,25.30
2018-09-24T01:34:29.388Z,25.53
2018-09-24T01:37:02.773Z,25.60
2018-09-24T01:39:36.188Z,25.53
2018-09-24T01:42:09.561Z,25.67
2018-09-24T01:44:42.968Z,25.67
2018-09-24T01:47:16.352Z,25.60
2018-09-24T01:49:49.743Z,25.73
2018-09-24T01:52:23.149Z,25.47
2018-09-24T01:54:56.572Z,25.93
2018-09-24T01:57:29.944Z,25.70
2018-09-24T02:00:03.393Z,25.70
2018-09-24T02:02:36.771Z,25.80
2018-09-24T02:05:14.493Z,25.67
2018-09-24T02:07:47.877Z,26.17
2018-09-24T02:10:24.672Z,26.20
2018-09-24T02:12:59.068Z,25.97
2018-09-24T02:15:33.578Z,25.57
2018-09-24T02:18:06.974Z,25.87
2018-09-24T02:20:45.699Z,25.47
2018-09-24T02:23:19.092Z,25.60
2018-09-24T02:25:52.497Z,25.53
2018-09-24T02:28:29.136Z,25.53
2018-09-24T02:31:02.565Z,25.70
2018-09-24T02:33:35.981Z,25.37
2018-09-24T02:36:09.385Z,26.00
2018-09-24T02:38:42.765Z,26.00
2018-09-24T02:41:16.201Z,25.97
2018-09-24T02:43:49.684Z,25.90
2018-09-24T02:46:23.100Z,25.53
2018-09-24T02:49:01.424Z,25.47
2018-09-24T02:51:34.845Z,26.13
2018-09-24T02:54:08.231Z,25.80
2018-09-24T02:56:48.718Z,25.63
2018-09-24T02:59:22.121Z,25.90
2018-09-24T03:01:55.547Z,26.17
2018-09-24T03:04:28.968Z,25.73
2018-09-24T03:07:02.403Z,25.90
2018-09-24T03:09:35.815Z,25.93
2018-09-24T03:12:09.271Z,26.00
2018-09-24T03:14:42.669Z,25.80
2018-09-24T03:17:17.843Z,26.07
2018-09-24T03:19:51.262Z,25.90
2018-09-24T03:22:25.760Z,26.27
2018-09-24T03:24:59.177Z,25.77
2018-09-24T03:27:32.600Z,25.90
2018-09-24T03:30:06.095Z,25.63
2018-09-24T03:32:40.332Z,26.00
2018-09-24T03:35:13.804Z,26.27
2018-09-24T03:37:47.230Z,26.07
2018-09-24T03:40:20.625Z,25.97
2018-09-24T03:42:54.259Z,26.20
2018-09-24T03:45:28.466Z,26.07
2018-09-24T03:48:01.856Z,25.93
2018-09-24T03:50:35.235Z,25.80
2018-09-24T03:53:09.035Z,27.90
2018-09-24T03:55:42.451Z,26.17
2018-09-24T03:58:15.871Z,25.97
2018-09-24T04:00:49.671Z,26.33
2018-09-24T04:03:23.060Z,26.17
2018-09-24T04:08:49.109Z,26.20
2018-09-24T04:11:27.882Z,26.23
2018-09-24T04:14:06.569Z,26.17
2018-09-24T04:16:45.128Z,26.03
2018-09-24T04:19:23.934Z,26.03
2018-09-24T04:22:02.713Z,26.00
2018-09-24T04:24:41.474Z,26.20
2018-09-24T04:27:20.264Z,26.00
2018-09-24T04:29:58.892Z,26.10
2018-09-24T04:32:37.491Z,28.20
2018-09-24T04:35:16.147Z,26.50
2018-09-24T04:37:54.764Z,26.10
2018-09-24T04:40:33.540Z,26.27
2018-09-24T04:43:12.351Z,27.70
2018-09-24T04:45:51.672Z,26.77
2018-09-24T04:48:30.399Z,26.30
2018-09-24T04:51:09.113Z,26.27
2018-09-24T04:53:47.961Z,25.70
2018-09-24T04:56:26.556Z,25.77
2018-09-24T04:59:05.221Z,26.33
2018-09-24T05:01:43.787Z,26.13
2018-09-24T05:04:22.657Z,25.73
2018-09-24T05:07:02.459Z,25.73
2018-09-24T05:09:41.386Z,26.13
2018-09-24T05:12:20.034Z,26.23
2018-09-24T05:14:58.928Z,26.27
2018-09-24T05:17:37.636Z,26.07
2018-09-24T05:20:16.485Z,25.50
2018-09-24T05:22:55.113Z,25.73
2018-09-24T05:25:33.732Z,26.00
2018-09-24T05:28:12.533Z,25.73
2018-09-24T05:30:51.205Z,26.03
2018-09-24T05:33:30.016Z,26.10
2018-09-24T05:36:08.637Z,25.87
2018-09-24T05:38:47.504Z,26.17
2018-09-24T05:41:26.233Z,26.03
2018-09-24T05:44:04.895Z,25.80
2018-09-24T05:46:43.632Z,25.80
2018-09-24T05:49:22.496Z,25.80
2018-09-24T05:52:01.224Z,26.10
2018-09-24T05:54:40.126Z,25.93
2018-09-24T05:57:18.863Z,26.03
2018-09-24T05:59:57.572Z,25.97
2018-09-24T06:02:36.351Z,26.00
2018-09-24T06:05:15.265Z,25.83
2018-09-24T06:07:54.153Z,26.10
2018-09-24T06:10:32.748Z,26.00
2018-09-24T06:13:11.500Z,26.33
2018-09-24T06:15:50.268Z,26.17
2018-09-24T06:18:28.919Z,25.87
2018-09-24T06:21:07.515Z,26.13
2018-09-24T06:23:46.128Z,25.83
2018-09-24T06:26:24.792Z,26.40
2018-09-24T06:29:03.350Z,25.87
2018-09-24T06:31:42.127Z,26.07
2018-09-24T06:34:20.918Z,26.50
2018-09-24T06:36:59.582Z,25.60
2018-09-24T06:39:38.467Z,25.97
2018-09-24T06:42:17.217Z,26.20
2018-09-24T06:44:55.968Z,25.67
2018-09-24T06:47:34.720Z,26.30
2018-09-24T06:50:13.373Z,25.93
2018-09-24T06:52:52.068Z,26.83
2018-09-24T06:55:30.845Z,26.60
2018-09-24T06:58:09.648Z,26.83
2018-09-24T07:00:48.335Z,26.37
2018-09-24T07:03:27.071Z,27.20
2018-09-24T07:06:05.841Z,27.63
2018-09-24T07:08:44.491Z,27.60
2018-09-24T07:11:23.582Z,27.03
2018-09-24T07:14:02.167Z,26.67
2018-09-24T07:16:41.012Z,27.13
2018-09-24T07:19:19.591Z,27.43
2018-09-24T07:21:58.283Z,26.83
2018-09-24T07:24:37.048Z,27.23
2018-09-24T07:27:15.762Z,26.70
2018-09-24T07:29:54.316Z,26.67
2018-09-24T07:32:33.039Z,26.50
2018-09-24T07:35:11.850Z,26.73
2018-09-24T07:37:50.535Z,26.87
2018-09-24T07:40:29.211Z,26.50
2018-09-24T07:43:08.097Z,26.50
2018-09-24T07:45:46.671Z,26.57
2018-09-24T07:48:25.508Z,25.90
2018-09-24T07:51:04.336Z,25.90
2018-09-24T07:53:43.035Z,26.47
2018-09-24T07:56:21.737Z,25.97
2018-09-24T07:59:00.476Z,26.13
2018-09-24T08:01:39.085Z,26.63
2018-09-24T08:04:17.891Z,26.13
2018-09-24T08:06:56.608Z,25.90
2018-09-24T08:09:35.441Z,26.33
2018-09-24T08:12:14.120Z,26.30
2018-09-24T08:14:52.840Z,25.90
2018-09-24T08:17:31.613Z,26.27
2018-09-24T08:20:10.460Z,26.03
2018-09-24T08:22:49.355Z,26.03
2018-09-24T08:25:27.987Z,25.60
2018-09-24T08:28:06.911Z,26.40
2018-09-24T08:30:45.694Z,26.27
2018-09-24T08:33:24.309Z,26.07
2018-09-24T08:36:03.155Z,25.93
2018-09-24T08:38:41.971Z,26.67
2018-09-24T08:41:20.788Z,26.00
2018-09-24T08:43:59.665Z,26.10
2018-09-24T08:46:38.536Z,27.20
2018-09-24T08:49:17.260Z,25.77
2018-09-24T08:51:55.932Z,25.77
2018-09-24T08:54:35.756Z,26.17
2018-09-24T08:57:14.626Z,25.53
2018-09-24T08:59:53.204Z,26.10
2018-09-24T09:02:31.883Z,25.80
2018-09-24T09:05:10.753Z,25.93
2018-09-24T09:07:49.536Z,26.03
2018-09-24T09:10:28.384Z,25.90
2018-09-24T09:13:07.119Z,25.93
2018-09-24T09:15:45.816Z,25.93
2018-09-24T09:18:24.630Z,26.00
2018-09-24T09:21:03.302Z,26.13
2018-09-24T09:23:42.169Z,25.60
2018-09-24T09:26:21.037Z,26.20
2018-09-24T09:28:59.847Z,25.67
2018-09-24T09:31:38.655Z,26.30
2018-09-24T09:34:17.404Z,26.00
2018-09-24T09:36:56.230Z,25.30
2018-09-24T09:39:34.952Z,25.73
2018-09-24T09:42:13.712Z,25.77
2018-09-24T09:44:52.516Z,25.83
2018-09-24T09:47:31.289Z,25.37
2018-09-24T09:50:10.129Z,25.37
2018-09-24T09:52:48.931Z,26.17
2018-09-24T09:55:27.553Z,25.37
2018-09-24T09:58:06.252Z,25.53
2018-09-24T10:00:45.015Z,25.93
2018-09-24T10:03:23.870Z,26.13
2018-09-24T10:06:02.533Z,25.87
2018-09-24T10:08:43.399Z,25.93
2018-09-24T10:11:22.026Z,25.73
2018-09-24T10:14:00.728Z,25.87
2018-09-24T10:16:39.327Z,25.37
2018-09-24T10:19:18.117Z,25.60
2018-09-24T10:21:56.879Z,25.60
2018-09-24T10:24:35.491Z,25.57
2018-09-24T10:27:14.300Z,26.00
2018-09-24T10:29:53.200Z,25.27
2018-09-24T10:32:31.815Z,26.10
2018-09-24T10:35:10.676Z,25.90
2018-09-24T10:37:49.404Z,25.80
2018-09-24T10:40:28.165Z,25.50
2018-09-24T10:43:06.743Z,25.57
2018-09-24T10:45:45.548Z,26.10
2018-09-24T10:48:24.382Z,26.17
2018-09-24T10:51:03.073Z,25.43
2018-09-24T10:53:41.774Z,25.77
2018-09-24T10:56:20.494Z,25.77
2018-09-24T10:58:59.339Z,25.30
2018-09-24T11:01:38.150Z,25.88
2018-09-24T11:04:17.048Z,25.40
2018-09-24T11:06:55.919Z,25.67
2018-09-24T11:09:34.810Z,25.87
2018-09-24T11:12:13.596Z,26.07
2018-09-24T11:14:52.184Z,25.73
2018-09-24T11:17:31.076Z,26.07
2018-09-24T11:20:09.716Z,26.05
2018-09-24T11:22:48.380Z,25.97
2018-09-24T11:25:27.069Z,25.82
2018-09-24T11:28:05.877Z,25.70
2018-09-24T11:30:44.592Z,25.72
2018-09-24T11:33:23.292Z,25.37
2018-09-24T11:36:02.210Z,25.90
2018-09-24T11:38:40.869Z,25.75
2018-09-24T11:41:19.612Z,26.03
2018-09-24T11:43:58.191Z,25.97
2018-09-24T11:46:36.978Z,25.83
2018-09-24T11:49:15.487Z,25.57
2018-09-24T11:51:56.487Z,25.17
2018-09-24T11:54:35.364Z,25.60
2018-09-24T11:57:14.246Z,25.27
2018-09-24T11:59:52.963Z,25.90
2018-09-24T12:02:31.745Z,25.55
2018-09-24T12:05:10.684Z,25.88
2018-09-24T12:07:49.540Z,26.17
2018-09-24T12:10:28.328Z,25.65
2018-09-24T12:13:08.247Z,25.43
2018-09-24T12:15:46.913Z,25.60
2018-09-24T12:18:29.409Z,25.40
2018-09-24T12:21:08.047Z,25.60
2018-09-24T12:23:46.772Z,25.62
2018-09-24T12:26:25.610Z,26.05
2018-09-24T12:29:04.364Z,25.50
2018-09-24T12:31:43.279Z,25.60
2018-09-24T12:34:21.984Z,25.60
2018-09-24T12:37:00.728Z,25.88
2018-09-24T12:39:39.559Z,26.12
2018-09-24T12:42:18.416Z,25.27
2018-09-24T12:44:57.116Z,25.87
2018-09-24T12:47:35.827Z,25.60
2018-09-24T12:50:14.696Z,25.60
2018-09-24T12:52:53.463Z,25.27
2018-09-24T12:55:33.213Z,25.68
2018-09-24T12:58:12.441Z,25.82
2018-09-24T13:00:51.208Z,25.70
2018-09-24T13:03:30.093Z,25.70
2018-09-24T13:06:09.004Z,25.70
2018-09-24T13:08:47.736Z,25.88
2018-09-24T13:11:26.426Z,26.23
2018-09-24T13:14:07.260Z,25.95
2018-09-24T13:16:46.003Z,25.82
2018-09-24T13:19:24.749Z,26.00
2018-09-24T13:22:03.459Z,25.52
2018-09-24T13:24:42.309Z,25.40
2018-09-24T13:27:21.034Z,26.17
2018-09-24T13:29:59.733Z,25.92
2018-09-24T16:45:27.348Z,27.50
2018-09-24T16:48:06.123Z,26.10
2018-09-24T16:50:44.865Z,26.87
2018-09-24T16:53:23.820Z,26.35
2018-09-24T16:56:03.801Z,26.48
2018-09-24T16:58:42.793Z,26.62
2018-09-24T17:01:21.704Z,26.52
2018-09-24T17:04:00.392Z,29.90
2018-09-24T17:06:39.283Z,28.70
2018-09-24T17:09:18.019Z,27.10
2018-09-24T17:11:56.817Z,27.10
2018-09-24T17:14:35.451Z,27.02
2018-09-24T17:17:14.178Z,26.82
2018-09-24T17:19:55.013Z,27.90
2018-09-24T17:22:33.872Z,27.05
2018-09-24T17:25:12.676Z,26.93
2018-09-24T17:27:51.500Z,26.90
2018-09-24T17:30:30.088Z,26.40
2018-09-24T17:33:08.831Z,27.02
2018-09-24T17:35:47.647Z,26.57
2018-09-24T17:38:26.553Z,26.50
2018-09-24T17:41:05.399Z,26.62
2018-09-24T17:43:44.132Z,26.48
2018-09-24T17:46:22.897Z,26.23
2018-09-24T17:49:01.729Z,26.30
2018-09-24T17:51:40.609Z,26.15
2018-09-24T17:54:19.223Z,26.17
2018-09-24T17:56:57.959Z,26.02
2018-09-24T17:59:36.770Z,26.25
2018-09-24T18:02:15.509Z,25.88
2018-09-24T18:04:54.297Z,26.15
2018-09-24T18:07:33.063Z,26.05
2018-09-24T18:10:11.859Z,26.17
2018-09-24T18:12:50.685Z,26.00
2018-09-24T18:15:29.506Z,26.15
2018-09-24T18:18:08.332Z,25.88
2018-09-24T18:20:46.985Z,26.23
2018-09-24T18:23:25.506Z,26.15
2018-09-24T18:26:04.259Z,26.07
2018-09-24T18:28:42.994Z,25.90
2018-09-24T18:31:21.719Z,26.45
2018-09-24T18:34:00.401Z,26.55
2018-09-24T18:36:39.024Z,26.85
2018-09-24T18:39:17.827Z,26.60
2018-09-24T18:41:56.565Z,26.52
2018-09-24T18:44:35.345Z,26.85
2018-09-24T18:47:13.979Z,26.65
2018-09-24T18:49:52.973Z,26.50
2018-09-24T18:52:31.812Z,26.23
2018-09-24T18:55:10.513Z,26.33
2018-09-24T18:57:49.358Z,26.80
2018-09-24T19:00:28.008Z,26.55
2018-09-24T19:03:06.944Z,26.45
2018-09-24T19:05:45.449Z,26.12
2018-09-24T19:08:24.223Z,26.40
2018-09-24T19:11:02.807Z,26.40
2018-09-24T19:13:41.596Z,26.07
2018-09-24T19:16:20.250Z,25.95
2018-09-24T19:18:59.069Z,26.23
2018-09-24T19:21:37.910Z,25.97
2018-09-24T19:24:16.659Z,26.17
2018-09-24T19:26:55.394Z,26.73
2018-09-24T19:29:34.108Z,25.95
2018-09-24T19:32:12.907Z,26.15
2018-09-24T19:34:51.492Z,25.92
2018-09-24T19:37:30.044Z,26.10
2018-09-24T19:40:08.814Z,25.85
2018-09-24T19:42:47.611Z,26.10
2018-09-24T19:45:26.443Z,26.52
2018-09-24T19:48:05.230Z,25.75
2018-09-24T19:50:43.907Z,26.10
2018-09-24T19:53:22.811Z,25.92
2018-09-24T19:56:01.622Z,26.30
2018-09-24T19:58:40.367Z,25.77
2018-09-24T20:01:19.155Z,26.33
2018-09-24T20:03:58.037Z,26.15
2018-09-24T20:06:37.036Z,26.20
2018-09-24T20:09:15.704Z,26.33
2018-09-24T20:11:54.698Z,26.60
2018-09-24T20:14:33.579Z,26.48
2018-09-24T20:17:12.507Z,26.70
2018-09-24T20:19:51.236Z,26.45
2018-09-24T20:22:30.015Z,26.10
2018-09-24T20:25:08.793Z,26.20
2018-09-24T20:27:47.488Z,26.35
2018-09-24T20:30:26.120Z,25.92
2018-09-24T20:33:04.816Z,26.02
2018-09-24T20:35:43.654Z,26.13
2018-09-24T20:38:22.492Z,26.27
2018-09-24T20:41:02.287Z,26.17
2018-09-24T20:43:41.099Z,26.30
2018-09-24T20:46:19.817Z,25.72
2018-09-24T20:48:58.587Z,25.95
2018-09-24T20:51:37.276Z,26.12
2018-09-24T20:54:15.951Z,26.10
2018-09-24T20:56:54.761Z,25.80
2018-09-24T20:59:33.549Z,25.85
2018-09-24T21:02:12.363Z,25.73
2018-09-24T21:04:51.244Z,26.00
2018-09-24T21:07:31.035Z,25.88
2018-09-24T21:10:09.771Z,26.42
2018-09-24T21:12:48.471Z,26.02
2018-09-24T21:15:27.300Z,26.13
2018-09-24T21:18:06.000Z,25.65
2018-09-24T21:20:44.856Z,26.17
2018-09-24T21:23:23.745Z,26.00
2018-09-24T21:26:02.451Z,26.00
2018-09-24T21:28:41.304Z,26.13
2018-09-24T21:31:20.055Z,26.00
2018-09-24T21:33:58.729Z,25.53
2018-09-24T21:36:37.464Z,25.83
2018-09-24T21:39:16.196Z,25.97
2018-09-24T21:41:54.848Z,26.07
2018-09-24T21:44:33.594Z,25.80
2018-09-24T21:47:12.219Z,25.63
2018-09-24T21:49:50.923Z,25.80
2018-09-24T21:52:29.668Z,25.67
2018-09-24T21:55:08.404Z,26.13
2018-09-24T21:57:47.119Z,26.10
2018-09-24T22:00:25.791Z,25.70
2018-09-24T22:03:04.587Z,25.87
2018-09-24T22:05:43.245Z,26.00
2018-09-24T22:08:21.913Z,26.37
2018-09-24T22:11:00.532Z,25.97
2018-09-24T22:13:39.355Z,25.60
2018-09-24T22:16:18.079Z,25.83
2018-09-24T22:18:56.792Z,25.80
2018-09-24T22:21:35.512Z,25.80
2018-09-24T22:24:14.275Z,25.60
2018-09-24T22:26:53.146Z,26.33
2018-09-24T22:29:31.879Z,25.67
2018-09-24T22:32:10.834Z,25.70
2018-09-24T22:34:49.477Z,25.77
2018-09-24T22:37:28.123Z,26.13
2018-09-24T22:40:06.790Z,25.47
2018-09-24T22:42:45.509Z,25.47
2018-09-24T22:45:24.456Z,25.53
2018-09-24T22:48:03.239Z,25.27
2018-09-24T22:50:41.913Z,25.77
2018-09-24T22:53:20.669Z,25.20
2018-09-24T22:55:59.320Z,25.77
2018-09-24T22:58:38.086Z,25.17
2018-09-24T23:01:16.747Z,25.90
2018-09-24T23:03:55.360Z,25.40
2018-09-24T23:06:33.999Z,25.93
2018-09-24T23:09:13.783Z,25.67
2018-09-24T23:11:52.464Z,25.90
2018-09-24T23:14:31.184Z,26.67
2018-09-24T23:17:09.831Z,26.33
2018-09-24T23:19:48.498Z,26.17
2018-09-24T23:22:27.229Z,26.17
2018-09-24T23:25:06.115Z,25.07
2018-09-24T23:27:44.785Z,25.57
2018-09-24T23:30:23.419Z,25.23
2018-09-24T23:33:02.260Z,25.70
2018-09-24T23:35:40.947Z,25.60
2018-09-24T23:38:19.547Z,25.50
2018-09-24T23:40:58.261Z,25.73
2018-09-24T23:43:37.048Z,25.70
2018-09-24T23:46:15.691Z,25.67
2018-09-24T23:48:54.350Z,25.37
2018-09-24T23:51:33.055Z,25.60
2018-09-24T23:54:11.932Z,25.37
2018-09-24T23:56:50.607Z,25.50
2018-09-24T23:59:29.389Z,25.10
